Aérodrome :
LOGIN :

S'inscrire | Disclaimer

   EN    FR    IT 

 










Légende :    VFR   VFR Marginal   IFR   IFR Intensif   IFR Très Intensif
Visi : 
Plafond : 
>= 8 km
>= 3000ft
5 à 8 km
1000 à 3000 ft
1500m à 5 km
500 à 1000 ft
800 à 1500m
200 à 500 ft
< 800m
< 200 ft
Symboles :   Orages  Brouillard  Fortes neiges  Fortes précipitations  Vent > 20 kt
SIGMETs :   Divers  Orages  Givrage  Turbulence  Onde Orograph.  Cendres Volcan.






- Altitude de l'aérodrome : 7 ft
- Code IATA : XHE


LFTH - Hyeres

DERNIER METAR :
  • 140030Z AUTO VRB03KT CAVOK 06/00 Q1005 NOSIG

METARs EXPIRÉS :
  • 140000Z AUTO 31005KT CAVOK 06/00 Q1005 NOSIG
  • 132330Z AUTO 29008KT CAVOK 07/00 Q1005 NOSIG
  • 132300Z AUTO 30006KT CAVOK 04/M00 Q1005 NOSIG
  • 132230Z AUTO 01005KT CAVOK 04/01 Q1005 NOSIG
  • 132200Z AUTO VRB03KT CAVOK 05/M00 Q1005 NOSIG

TAF TAF LFTH
Valide du 13 à 21h jusqu'au 14 à 21h UTC


132000Z 1321/1421 VRB05KT CAVOK
BECMG 1404/1406 BKN030
TEMPO 1407/1409 SHRA
BECMG 1409/1411 15015G25KT RA
TEMPO 1411/1418 4000 TSRA SCT015CB BKN020
PROB40
TEMPO 1414/1418 VRB20G40KT 2000 +TSRA BKN015CB
BECMG 1418/1420 VRB05KT CAVOK



MET'MAP, la Météo Aéronautique d'un coup d'oeil ! - Copyright ORBIFLY Décembre 2007 - Disclaimer

ORBIFLY MET'MAP TEAM :

Programmation & Développement : Alexandra Zaïnal
Conception & Développement : Baudouin d'Aumeries
Co-Programmation & Développement : Marc-Olivier Méhu
Soutien technique & logistique : Manuel Goepfert

Contact : metmap@orbifly.com




SOURCES & CREDITS :

   NOAA